createdAt,value
2023-03-03T00:00:13.241Z,44.70
2023-03-03T00:05:18.691Z,53.88
2023-03-03T00:10:21.478Z,54.45
2023-03-03T00:15:26.164Z,47.20
2023-03-03T00:20:40.263Z,55.03
2023-03-03T00:25:49.104Z,44.78
2023-03-03T00:30:54.026Z,53.50
2023-03-03T00:35:57.795Z,52.10
2023-03-03T00:41:00.495Z,39.80
2023-03-03T00:46:03.353Z,47.53
2023-03-03T00:51:28.761Z,51.53
2023-03-03T00:56:31.860Z,39.33
2023-03-03T01:01:34.516Z,47.28
2023-03-03T01:06:37.478Z,36.03
2023-03-03T01:11:41.496Z,50.80
2023-03-03T01:16:44.580Z,44.08
2023-03-03T01:21:47.308Z,39.63
2023-03-03T01:26:50.110Z,50.70
2023-03-03T01:31:52.784Z,43.77
2023-03-03T01:36:55.399Z,47.92
2023-03-03T01:41:58.340Z,43.38
2023-03-03T01:47:09.242Z,48.38
2023-03-03T01:52:34.651Z,49.50
2023-03-03T01:57:42.081Z,37.73
2023-03-03T02:02:45.951Z,38.42
2023-03-03T02:07:49.094Z,44.25
2023-03-03T02:12:53.947Z,42.70
2023-03-03T02:18:00.805Z,35.17
2023-03-03T02:23:12.284Z,33.70
2023-03-03T02:28:15.464Z,37.65
2023-03-03T02:33:18.120Z,43.88
2023-03-03T02:38:47.856Z,37.88
2023-03-03T02:43:59.206Z,40.58
2023-03-03T02:49:03.290Z,44.10
2023-03-03T02:54:06.354Z,32.88
2023-03-03T02:59:09.796Z,47.42
2023-03-03T03:04:21.673Z,42.53
2023-03-03T03:09:26.563Z,44.47
2023-03-03T03:14:30.606Z,39.37
2023-03-03T03:19:33.325Z,42.08
2023-03-03T03:24:38.053Z,43.17
2023-03-03T03:29:43.995Z,49.20
2023-03-03T03:34:47.674Z,34.65
2023-03-03T03:39:50.986Z,37.10
2023-03-03T03:44:55.190Z,36.50
2023-03-03T03:49:58.069Z,43.70
2023-03-03T03:55:01.524Z,35.28
2023-03-03T04:00:06.782Z,46.15
2023-03-03T04:05:17.810Z,41.63
2023-03-03T04:10:20.897Z,39.45
2023-03-03T04:15:24.523Z,33.47
2023-03-03T04:20:27.346Z,45.15
2023-03-03T04:25:31.518Z,38.92
2023-03-03T04:30:34.697Z,37.63
2023-03-03T04:35:37.464Z,40.45
2023-03-03T04:40:43.550Z,32.88
2023-03-03T04:45:48.261Z,30.55
2023-03-03T04:50:52.295Z,40.70
2023-03-03T04:55:55.977Z,37.37
2023-03-03T05:00:58.954Z,36.75
2023-03-03T05:06:04.352Z,31.30
2023-03-03T05:11:07.648Z,40.38
2023-03-03T05:16:10.401Z,26.58
2023-03-03T05:21:13.111Z,33.57
2023-03-03T05:26:15.750Z,27.05
2023-03-03T05:31:18.408Z,32.67
2023-03-03T05:36:21.151Z,23.60
2023-03-03T05:41:24.087Z,29.92
2023-03-03T05:46:26.745Z,30.07
2023-03-03T05:51:29.513Z,39.22
2023-03-03T05:56:32.118Z,30.83
2023-03-03T06:01:34.830Z,48.45
2023-03-03T06:06:37.658Z,41.53
2023-03-03T06:11:40.259Z,34.07
2023-03-03T06:16:43.042Z,55.80
2023-03-03T06:21:45.850Z,37.08
2023-03-03T06:26:48.603Z,31.55
2023-03-03T06:31:51.634Z,32.60
2023-03-03T06:36:54.484Z,42.10
2023-03-03T06:41:57.116Z,52.90
2023-03-03T06:47:01.892Z,57.05
2023-03-03T06:52:14.729Z,69.57
2023-03-03T06:57:28.278Z,61.08
2023-03-03T07:02:31.540Z,47.27
2023-03-03T07:07:34.245Z,54.50
2023-03-03T07:12:36.869Z,49.00
2023-03-03T07:17:45.814Z,51.03
2023-03-03T07:22:48.712Z,49.53
2023-03-03T07:27:52.698Z,42.20
2023-03-03T07:32:58.430Z,45.13
2023-03-03T07:38:01.546Z,55.63
2023-03-03T07:43:47.920Z,48.60
2023-03-03T07:48:52.585Z,43.40
2023-03-03T07:54:14.133Z,58.60
2023-03-03T07:59:25.056Z,73.05
2023-03-03T08:04:42.218Z,66.00
2023-03-03T08:09:47.944Z,65.13
2023-03-03T08:14:54.461Z,42.20
2023-03-03T08:19:57.471Z,78.27
2023-03-03T08:25:00.247Z,65.68
2023-03-03T08:30:03.065Z,68.80
2023-03-03T08:35:06.207Z,70.80
2023-03-03T08:40:09.727Z,80.95
2023-03-03T08:45:12.513Z,80.47
2023-03-03T08:50:17.306Z,94.90
2023-03-03T08:55:20.174Z,62.47
2023-03-03T09:00:23.190Z,73.82
2023-03-03T09:05:26.797Z,79.53
2023-03-03T09:10:32.084Z,98.90
2023-03-03T09:15:37.926Z,98.97
2023-03-03T09:20:43.272Z,78.93
2023-03-03T09:25:47.281Z,84.97
2023-03-03T09:30:51.349Z,99.07
2023-03-03T09:36:15.429Z,43.70
2023-03-03T09:41:50.760Z,64.45
2023-03-03T09:47:28.993Z,97.38
2023-03-03T09:52:56.947Z,71.00
2023-03-03T09:58:11.928Z,67.30
2023-03-03T10:04:05.750Z,75.83
2023-03-03T10:09:26.834Z,85.97
2023-03-03T10:14:59.058Z,44.92
2023-03-03T10:20:47.607Z,68.68
2023-03-03T10:26:44.716Z,64.45
2023-03-03T10:32:00.280Z,98.00
2023-03-03T10:37:30.527Z,90.93
2023-03-03T10:43:08.150Z,75.28
2023-03-03T10:48:18.261Z,96.65
2023-03-03T10:53:41.308Z,75.22
2023-03-03T10:59:05.756Z,93.67
2023-03-03T11:04:23.879Z,69.63
2023-03-03T11:09:45.088Z,85.93
2023-03-03T11:14:56.833Z,86.38
2023-03-03T11:20:05.268Z,73.32
2023-03-03T11:25:20.700Z,73.80
2023-03-03T11:30:40.138Z,116.53
2023-03-03T11:36:15.127Z,66.90
2023-03-03T11:41:34.441Z,88.90
2023-03-03T11:47:14.339Z,82.82
2023-03-03T11:52:37.491Z,65.93
2023-03-03T11:58:31.957Z,89.65
2023-03-03T12:03:42.306Z,54.05
2023-03-03T12:09:15.563Z,80.63
2023-03-03T12:14:50.921Z,63.92
2023-03-03T12:20:15.353Z,86.43
2023-03-03T12:25:47.289Z,66.82
2023-03-03T12:31:02.480Z,49.53
2023-03-03T12:36:36.208Z,46.90
2023-03-03T12:42:03.869Z,45.63
2023-03-03T12:47:16.009Z,63.97
2023-03-03T12:52:32.899Z,44.28
2023-03-03T12:57:35.668Z,51.45
2023-03-03T13:03:14.088Z,57.75
2023-03-03T13:08:23.875Z,64.75
2023-03-03T13:13:51.824Z,41.87
2023-03-03T13:19:12.289Z,47.53
2023-03-03T13:24:26.283Z,43.83
2023-03-03T13:29:40.907Z,47.30
2023-03-03T13:35:02.039Z,21.13
2023-03-03T13:40:14.080Z,40.60
2023-03-03T13:45:30.498Z,55.20
2023-03-03T13:50:57.412Z,49.88
2023-03-03T13:56:00.215Z,30.70
2023-03-03T14:01:21.220Z,18.23
2023-03-03T14:06:30.118Z,31.23
2023-03-03T14:11:48.191Z,30.05
2023-03-03T14:17:03.895Z,26.08
2023-03-03T14:22:35.655Z,29.83
2023-03-03T14:27:42.135Z,31.38
2023-03-03T14:33:08.426Z,19.50
2023-03-03T14:38:47.941Z,35.75
2023-03-03T14:44:00.513Z,30.42
2023-03-03T14:49:06.150Z,38.83
2023-03-03T14:54:30.571Z,26.90
2023-03-03T14:59:33.653Z,32.50
2023-03-03T15:04:36.438Z,27.20
2023-03-03T15:09:48.322Z,22.77
2023-03-03T15:15:05.828Z,29.42
2023-03-03T15:20:32.611Z,23.88
2023-03-03T15:25:43.687Z,29.07
2023-03-03T15:30:49.753Z,29.77
2023-03-03T15:36:11.207Z,28.55
2023-03-03T15:41:26.027Z,38.80
2023-03-03T15:47:01.834Z,39.63
2023-03-03T15:52:23.771Z,15.70
2023-03-03T15:58:04.000Z,28.02
2023-03-03T16:03:15.524Z,7.72
2023-03-03T16:08:22.329Z,15.85
2023-03-03T16:13:43.644Z,18.33
2023-03-03T16:18:58.712Z,20.83
2023-03-03T16:24:27.652Z,11.23
2023-03-03T16:29:48.490Z,25.90
2023-03-03T16:35:00.738Z,18.83
2023-03-03T16:40:25.459Z,24.02
2023-03-03T16:45:35.672Z,22.50
2023-03-03T16:50:55.165Z,25.60
2023-03-03T16:56:37.046Z,25.92
2023-03-03T17:02:08.906Z,31.92
2023-03-03T17:07:35.292Z,19.83
2023-03-03T17:12:59.163Z,19.27
2023-03-03T17:18:39.328Z,33.47
2023-03-03T17:23:53.907Z,19.75
2023-03-03T17:29:41.799Z,20.50
2023-03-03T17:35:33.918Z,24.85
2023-03-03T17:40:56.903Z,22.37
2023-03-03T17:46:05.068Z,32.08
2023-03-03T17:51:10.952Z,10.23
2023-03-03T17:56:44.235Z,28.13
2023-03-03T18:02:23.087Z,16.75
2023-03-03T18:07:46.717Z,18.37
2023-03-03T18:13:24.868Z,17.60
2023-03-03T18:19:06.109Z,27.77
2023-03-03T18:24:30.213Z,17.40
2023-03-03T18:29:32.989Z,27.77
2023-03-03T18:34:40.907Z,24.10
2023-03-03T18:39:46.991Z,24.90
2023-03-03T18:44:49.984Z,17.35
2023-03-03T18:50:11.373Z,22.60
2023-03-03T18:55:14.044Z,23.15
2023-03-03T19:00:30.420Z,22.40
2023-03-03T19:05:50.534Z,15.43
2023-03-03T19:10:57.532Z,17.67
2023-03-03T19:16:06.957Z,18.08
2023-03-03T19:21:34.303Z,23.75
2023-03-03T19:26:55.285Z,23.67
2023-03-03T19:32:35.605Z,10.23
2023-03-03T19:37:57.187Z,5.55
2023-03-03T19:43:14.967Z,16.10
2023-03-03T19:48:43.990Z,17.08
2023-03-03T19:54:10.494Z,22.57
2023-03-03T19:59:21.024Z,18.83
2023-03-03T20:04:45.642Z,26.55
2023-03-03T20:10:00.382Z,22.33
2023-03-03T20:15:10.131Z,28.40
2023-03-03T20:20:28.240Z,26.37
2023-03-03T20:25:54.160Z,15.35
2023-03-03T20:31:24.182Z,18.05
2023-03-03T20:36:36.460Z,18.40
2023-03-03T20:41:50.243Z,13.93
2023-03-03T20:47:04.912Z,22.97
2023-03-03T20:52:42.603Z,20.38
2023-03-03T20:57:49.516Z,13.00
2023-03-03T21:03:27.420Z,10.65
2023-03-03T21:08:53.506Z,16.88
2023-03-03T21:13:56.633Z,9.20
2023-03-03T21:19:06.195Z,17.55
2023-03-03T21:24:20.041Z,28.15
2023-03-03T21:29:35.680Z,24.45
2023-03-03T21:34:41.335Z,22.65
2023-03-03T21:39:44.908Z,17.73
2023-03-03T21:44:50.115Z,22.58
2023-03-03T21:49:53.453Z,20.50
2023-03-03T21:54:56.240Z,24.55
2023-03-03T21:59:58.888Z,8.90
2023-03-03T22:05:03.962Z,17.47
2023-03-03T22:10:07.947Z,17.08
2023-03-03T22:15:11.203Z,25.08
2023-03-03T22:20:17.696Z,22.52
2023-03-03T22:25:20.420Z,30.40
2023-03-03T22:30:23.094Z,24.87
2023-03-03T22:35:25.882Z,24.30
2023-03-03T22:40:28.534Z,8.85
2023-03-03T22:45:31.141Z,21.13
2023-03-03T22:50:33.785Z,27.15
2023-03-03T22:55:37.446Z,2.80
2023-03-03T23:00:41.963Z,27.23
2023-03-03T23:05:44.656Z,29.38
2023-03-03T23:10:47.784Z,25.77
2023-03-03T23:15:50.506Z,21.83
2023-03-03T23:20:53.247Z,17.47
2023-03-03T23:25:55.817Z,22.80
2023-03-03T23:30:58.767Z,24.30
2023-03-03T23:36:02.023Z,17.80
2023-03-03T23:41:04.935Z,20.17
2023-03-03T23:46:07.523Z,20.80
2023-03-03T23:51:10.097Z,8.98
2023-03-03T23:56:12.740Z,9.88
